sensor_id;sensor_type;location;lat;lon;timestamp;pressure;altitude;pressure_sealevel;temperature;humidity
49515;BME280;35415;47.870;16.058;2022-12-18T00:00:47;98676.66;;;-1.92;84.37
49515;BME280;35415;47.870;16.058;2022-12-18T00:03:15;98684.44;;;-1.91;84.54
49515;BME280;35415;47.870;16.058;2022-12-18T00:05:48;98648.59;;;-2.19;84.07
49515;BME280;35415;47.870;16.058;2022-12-18T00:08:17;98693.78;;;-1.96;84.27
49515;BME280;35415;47.870;16.058;2022-12-18T00:10:45;98682.66;;;-2.08;84.44
49515;BME280;35415;47.870;16.058;2022-12-18T00:13:13;98704.81;;;-2.01;84.80
49515;BME280;35415;47.870;16.058;2022-12-18T00:15:41;98701.63;;;-2.04;84.54
49515;BME280;35415;47.870;16.058;2022-12-18T00:18:10;98708.19;;;-2.08;84.47
49515;BME280;35415;47.870;16.058;2022-12-18T00:20:38;98716.41;;;-2.12;84.35
49515;BME280;35415;47.870;16.058;2022-12-18T00:23:06;98711.88;;;-2.19;84.23
49515;BME280;35415;47.870;16.058;2022-12-18T00:25:34;98718.13;;;-2.20;84.62
49515;BME280;35415;47.870;16.058;2022-12-18T00:28:01;98716.94;;;-2.26;84.33
49515;BME280;35415;47.870;16.058;2022-12-18T00:30:29;98718.22;;;-2.30;85.04
49515;BME280;35415;47.870;16.058;2022-12-18T00:32:56;98726.44;;;-2.33;84.92
49515;BME280;35415;47.870;16.058;2022-12-18T00:35:27;98723.53;;;-2.39;85.22
49515;BME280;35415;47.870;16.058;2022-12-18T00:37:54;98728.81;;;-2.39;85.15
49515;BME280;35415;47.870;16.058;2022-12-18T00:40:22;98725.66;;;-2.43;85.36
49515;BME280;35415;47.870;16.058;2022-12-18T00:42:51;98723.31;;;-2.46;85.57
49515;BME280;35415;47.870;16.058;2022-12-18T00:45:24;98729.16;;;-2.52;85.09
49515;BME280;35415;47.870;16.058;2022-12-18T00:47:52;98669.38;;;-2.87;85.44
49515;BME280;35415;47.870;16.058;2022-12-18T00:50:19;98736.84;;;-2.59;85.54
49515;BME280;35415;47.870;16.058;2022-12-18T00:52:48;98721.19;;;-2.60;85.79
49515;BME280;35415;47.870;16.058;2022-12-18T00:55:18;98731.06;;;-2.62;85.83
49515;BME280;35415;47.870;16.058;2022-12-18T00:57:46;98721.38;;;-2.72;85.54
49515;BME280;35415;47.870;16.058;2022-12-18T01:00:15;98735.94;;;-2.67;85.61
49515;BME280;35415;47.870;16.058;2022-12-18T01:02:42;98731.78;;;-2.70;85.53
49515;BME280;35415;47.870;16.058;2022-12-18T01:05:10;98729.91;;;-2.78;85.80
49515;BME280;35415;47.870;16.058;2022-12-18T01:07:38;98728.38;;;-2.80;85.71
49515;BME280;35415;47.870;16.058;2022-12-18T01:10:10;98682.50;;;-3.33;85.53
49515;BME280;35415;47.870;16.058;2022-12-18T01:12:38;98752.63;;;-2.77;85.37
49515;BME280;35415;47.870;16.058;2022-12-18T01:15:07;98758.75;;;-2.86;85.41
49515;BME280;35415;47.870;16.058;2022-12-18T01:17:36;98760.16;;;-2.91;85.80
49515;BME280;35415;47.870;16.058;2022-12-18T01:20:04;98702.44;;;-3.30;85.91
49515;BME280;35415;47.870;16.058;2022-12-18T01:22:31;98711.31;;;-3.41;85.70
49515;BME280;35415;47.870;16.058;2022-12-18T01:24:59;98757.63;;;-3.11;85.37
49515;BME280;35415;47.870;16.058;2022-12-18T01:27:30;98756.19;;;-3.05;85.61
49515;BME280;35415;47.870;16.058;2022-12-18T01:29:58;98759.41;;;-3.11;85.32
49515;BME280;35415;47.870;16.058;2022-12-18T01:32:25;98758.59;;;-3.12;85.76
49515;BME280;35415;47.870;16.058;2022-12-18T01:34:52;98724.66;;;-3.52;85.62
49515;BME280;35415;47.870;16.058;2022-12-18T01:37:20;98741.53;;;-3.45;85.97
49515;BME280;35415;47.870;16.058;2022-12-18T01:39:47;98693.72;;;-3.77;85.98
49515;BME280;35415;47.870;16.058;2022-12-18T01:42:16;98774.41;;;-3.21;85.70
49515;BME280;35415;47.870;16.058;2022-12-18T01:44:59;98789.66;;;-3.25;85.99
49515;BME280;35415;47.870;16.058;2022-12-18T01:47:31;98696.78;;;-3.91;86.17
49515;BME280;35415;47.870;16.058;2022-12-18T01:50:03;98787.75;;;-3.33;86.15
49515;BME280;35415;47.870;16.058;2022-12-18T01:52:32;98788.28;;;-3.39;86.24
49515;BME280;35415;47.870;16.058;2022-12-18T01:55:02;98788.88;;;-3.45;86.26
49515;BME280;35415;47.870;16.058;2022-12-18T01:57:31;98715.91;;;-3.99;85.82
49515;BME280;35415;47.870;16.058;2022-12-18T02:00:04;98786.09;;;-3.53;86.13
49515;BME280;35415;47.870;16.058;2022-12-18T02:02:32;98767.03;;;-3.65;86.70
49515;BME280;35415;47.870;16.058;2022-12-18T02:05:00;98749.50;;;-3.83;86.55
49515;BME280;35415;47.870;16.058;2022-12-18T02:07:37;98758.91;;;-3.81;86.37
49515;BME280;35415;47.870;16.058;2022-12-18T02:10:16;98788.91;;;-3.64;86.52
49515;BME280;35415;47.870;16.058;2022-12-18T02:12:52;98787.94;;;-3.73;87.00
49515;BME280;35415;47.870;16.058;2022-12-18T02:15:28;98800.78;;;-3.70;87.02
49515;BME280;35415;47.870;16.058;2022-12-18T02:18:04;98801.91;;;-3.72;86.87
49515;BME280;35415;47.870;16.058;2022-12-18T02:20:37;98800.41;;;-3.75;87.05
49515;BME280;35415;47.870;16.058;2022-12-18T02:23:16;98812.84;;;-3.77;87.13
49515;BME280;35415;47.870;16.058;2022-12-18T02:26:07;98809.41;;;-3.77;87.27
49515;BME280;35415;47.870;16.058;2022-12-18T02:28:41;98806.38;;;-3.82;87.33
49515;BME280;35415;47.870;16.058;2022-12-18T02:31:14;98756.00;;;-4.16;87.36
49515;BME280;35415;47.870;16.058;2022-12-18T02:33:44;98819.66;;;-3.84;86.99
49515;BME280;35415;47.870;16.058;2022-12-18T02:36:13;98823.34;;;-3.86;86.99
49515;BME280;35415;47.870;16.058;2022-12-18T02:38:43;98828.06;;;-3.90;87.37
49515;BME280;35415;47.870;16.058;2022-12-18T02:41:13;98819.50;;;-3.92;87.21
49515;BME280;35415;47.870;16.058;2022-12-18T02:43:46;98834.72;;;-3.96;86.98
49515;BME280;35415;47.870;16.058;2022-12-18T02:46:25;98833.19;;;-3.98;87.18
49515;BME280;35415;47.870;16.058;2022-12-18T02:49:00;98782.94;;;-4.43;87.28
49515;BME280;35415;47.870;16.058;2022-12-18T02:51:34;98791.66;;;-4.33;87.23
49515;BME280;35415;47.870;16.058;2022-12-18T02:54:09;98835.09;;;-4.10;87.73
49515;BME280;35415;47.870;16.058;2022-12-18T02:56:45;98837.03;;;-4.12;87.51
49515;BME280;35415;47.870;16.058;2022-12-18T02:59:17;98796.19;;;-4.45;87.80
49515;BME280;35415;47.870;16.058;2022-12-18T03:01:51;98841.75;;;-4.15;87.87
49515;BME280;35415;47.870;16.058;2022-12-18T03:04:26;98845.50;;;-4.18;88.36
49515;BME280;35415;47.870;16.058;2022-12-18T03:06:58;98831.50;;;-4.28;88.38
49515;BME280;35415;47.870;16.058;2022-12-18T03:09:30;98833.69;;;-4.24;88.44
49515;BME280;35415;47.870;16.058;2022-12-18T03:12:04;98828.16;;;-4.30;88.64
49515;BME280;35415;47.870;16.058;2022-12-18T03:14:54;98844.91;;;-4.21;88.46
49515;BME280;35415;47.870;16.058;2022-12-18T03:17:26;98845.72;;;-4.21;88.42
49515;BME280;35415;47.870;16.058;2022-12-18T03:19:57;98841.72;;;-4.25;88.82
49515;BME280;35415;47.870;16.058;2022-12-18T03:22:27;98836.72;;;-4.38;88.65
49515;BME280;35415;47.870;16.058;2022-12-18T03:24:58;98769.44;;;-4.79;88.90
49515;BME280;35415;47.870;16.058;2022-12-18T03:27:30;98847.81;;;-4.34;88.67
49515;BME280;35415;47.870;16.058;2022-12-18T03:30:03;98851.50;;;-4.37;89.17
49515;BME280;35415;47.870;16.058;2022-12-18T03:32:37;98847.22;;;-4.38;88.82
49515;BME280;35415;47.870;16.058;2022-12-18T03:35:08;98840.28;;;-4.48;88.82
49515;BME280;35415;47.870;16.058;2022-12-18T03:37:37;98849.81;;;-4.47;89.04
49515;BME280;35415;47.870;16.058;2022-12-18T03:40:06;98855.22;;;-4.49;89.21
49515;BME280;35415;47.870;16.058;2022-12-18T03:42:43;98862.41;;;-4.51;89.04
49515;BME280;35415;47.870;16.058;2022-12-18T03:45:20;98855.59;;;-4.54;89.33
49515;BME280;35415;47.870;16.058;2022-12-18T03:47:58;98857.53;;;-4.56;89.24
49515;BME280;35415;47.870;16.058;2022-12-18T03:50:33;98862.22;;;-4.59;89.25
49515;BME280;35415;47.870;16.058;2022-12-18T03:53:12;98868.72;;;-4.63;89.38
49515;BME280;35415;47.870;16.058;2022-12-18T03:55:43;98860.97;;;-4.65;89.42
49515;BME280;35415;47.870;16.058;2022-12-18T03:58:15;98868.00;;;-4.65;89.56
49515;BME280;35415;47.870;16.058;2022-12-18T04:00:45;98863.72;;;-4.66;89.49
49515;BME280;35415;47.870;16.058;2022-12-18T04:03:16;98868.41;;;-4.70;89.97
49515;BME280;35415;47.870;16.058;2022-12-18T04:05:49;98824.00;;;-5.13;89.65
49515;BME280;35415;47.870;16.058;2022-12-18T04:08:18;98859.34;;;-4.87;89.60
49515;BME280;35415;47.870;16.058;2022-12-18T04:10:46;98876.94;;;-4.77;89.97
49515;BME280;35415;47.870;16.058;2022-12-18T04:13:23;98878.03;;;-4.80;89.64
49515;BME280;35415;47.870;16.058;2022-12-18T04:15:51;98884.50;;;-4.84;89.97
49515;BME280;35415;47.870;16.058;2022-12-18T04:18:19;98870.31;;;-5.02;89.94
49515;BME280;35415;47.870;16.058;2022-12-18T04:20:46;98876.97;;;-4.98;89.74
49515;BME280;35415;47.870;16.058;2022-12-18T04:23:13;98888.34;;;-4.88;89.79
49515;BME280;35415;47.870;16.058;2022-12-18T04:25:40;98899.78;;;-4.89;90.07
49515;BME280;35415;47.870;16.058;2022-12-18T04:28:07;98900.63;;;-4.89;89.87
49515;BME280;35415;47.870;16.058;2022-12-18T04:30:36;98905.03;;;-4.89;90.22
49515;BME280;35415;47.870;16.058;2022-12-18T04:33:03;98907.94;;;-4.92;89.68
49515;BME280;35415;47.870;16.058;2022-12-18T04:35:31;98901.59;;;-4.90;90.39
49515;BME280;35415;47.870;16.058;2022-12-18T04:37:58;98911.13;;;-4.89;89.70
49515;BME280;35415;47.870;16.058;2022-12-18T04:40:25;98923.41;;;-4.89;89.82
49515;BME280;35415;47.870;16.058;2022-12-18T04:42:52;98925.22;;;-4.90;89.84
49515;BME280;35415;47.870;16.058;2022-12-18T04:45:19;98927.97;;;-4.91;89.71
49515;BME280;35415;47.870;16.058;2022-12-18T04:47:48;98930.84;;;-4.94;89.56
49515;BME280;35415;47.870;16.058;2022-12-18T04:50:15;98903.97;;;-5.07;89.64
49515;BME280;35415;47.870;16.058;2022-12-18T04:52:43;98876.28;;;-5.42;89.40
49515;BME280;35415;47.870;16.058;2022-12-18T04:55:10;98818.28;;;-5.69;89.11
49515;BME280;35415;47.870;16.058;2022-12-18T04:57:38;98913.06;;;-5.11;89.22
49515;BME280;35415;47.870;16.058;2022-12-18T05:00:06;98858.97;;;-5.54;89.38
49515;BME280;35415;47.870;16.058;2022-12-18T05:02:35;98930.34;;;-5.09;89.05
49515;BME280;35415;47.870;16.058;2022-12-18T05:05:05;98921.91;;;-5.12;89.55
49515;BME280;35415;47.870;16.058;2022-12-18T05:07:33;98910.19;;;-5.29;89.38
49515;BME280;35415;47.870;16.058;2022-12-18T05:10:00;98926.84;;;-5.19;89.38
49515;BME280;35415;47.870;16.058;2022-12-18T05:12:27;98928.97;;;-5.24;89.33
49515;BME280;35415;47.870;16.058;2022-12-18T05:14:55;98938.78;;;-5.26;89.05
49515;BME280;35415;47.870;16.058;2022-12-18T05:17:22;98930.97;;;-5.37;89.31
49515;BME280;35415;47.870;16.058;2022-12-18T05:19:49;98930.38;;;-5.41;89.53
49515;BME280;35415;47.870;16.058;2022-12-18T05:22:18;98896.19;;;-5.71;89.34
49515;BME280;35415;47.870;16.058;2022-12-18T05:24:46;98953.00;;;-5.40;89.90
49515;BME280;35415;47.870;16.058;2022-12-18T05:27:13;98947.78;;;-5.40;89.47
49515;BME280;35415;47.870;16.058;2022-12-18T05:29:40;98926.25;;;-5.55;89.79
49515;BME280;35415;47.870;16.058;2022-12-18T05:32:08;98947.31;;;-5.45;89.80
49515;BME280;35415;47.870;16.058;2022-12-18T05:34:35;98946.75;;;-5.49;90.24
49515;BME280;35415;47.870;16.058;2022-12-18T05:37:02;98946.19;;;-5.52;90.07
49515;BME280;35415;47.870;16.058;2022-12-18T05:39:31;98943.69;;;-5.54;89.62
49515;BME280;35415;47.870;16.058;2022-12-18T05:41:58;98943.19;;;-5.59;89.83
49515;BME280;35415;47.870;16.058;2022-12-18T05:44:26;98945.13;;;-5.61;89.81
49515;BME280;35415;47.870;16.058;2022-12-18T05:46:54;98939.28;;;-5.64;90.64
49515;BME280;35415;47.870;16.058;2022-12-18T05:49:21;98943.97;;;-5.68;89.95
49515;BME280;35415;47.870;16.058;2022-12-18T05:51:48;98945.03;;;-5.70;90.63
49515;BME280;35415;47.870;16.058;2022-12-18T05:54:17;98960.03;;;-5.72;90.31
49515;BME280;35415;47.870;16.058;2022-12-18T05:56:46;98956.72;;;-5.75;90.21
49515;BME280;35415;47.870;16.058;2022-12-18T05:59:13;98958.63;;;-5.77;90.20
49515;BME280;35415;47.870;16.058;2022-12-18T06:01:41;98961.50;;;-5.80;90.13
49515;BME280;35415;47.870;16.058;2022-12-18T06:04:08;98959.84;;;-5.81;90.45
49515;BME280;35415;47.870;16.058;2022-12-18T06:06:36;98960.78;;;-5.82;90.57
49515;BME280;35415;47.870;16.058;2022-12-18T06:09:03;98962.94;;;-5.87;90.85
49515;BME280;35415;47.870;16.058;2022-12-18T06:11:34;98965.56;;;-5.87;90.92
49515;BME280;35415;47.870;16.058;2022-12-18T06:14:05;98966.63;;;-5.89;90.89
49515;BME280;35415;47.870;16.058;2022-12-18T06:16:32;98968.56;;;-5.91;90.17
49515;BME280;35415;47.870;16.058;2022-12-18T06:19:01;98972.41;;;-5.95;90.84
49515;BME280;35415;47.870;16.058;2022-12-18T06:21:29;98977.88;;;-5.98;90.69
49515;BME280;35415;47.870;16.058;2022-12-18T06:23:57;98980.75;;;-6.01;90.59
49515;BME280;35415;47.870;16.058;2022-12-18T06:26:24;98979.91;;;-6.02;91.13
49515;BME280;35415;47.870;16.058;2022-12-18T06:28:52;98981.00;;;-6.04;90.32
49515;BME280;35415;47.870;16.058;2022-12-18T06:31:20;98952.19;;;-6.27;90.74
49515;BME280;35415;47.870;16.058;2022-12-18T06:33:47;98979.78;;;-6.12;90.98
49515;BME280;35415;47.870;16.058;2022-12-18T06:36:15;98978.25;;;-6.14;90.41
49515;BME280;35415;47.870;16.058;2022-12-18T06:38:43;98988.16;;;-6.18;90.79
49515;BME280;35415;47.870;16.058;2022-12-18T06:41:12;98982.31;;;-6.21;91.05
49515;BME280;35415;47.870;16.058;2022-12-18T06:43:40;98993.63;;;-6.21;91.16
49515;BME280;35415;47.870;16.058;2022-12-18T06:46:08;99001.56;;;-6.22;90.90
49515;BME280;35415;47.870;16.058;2022-12-18T06:48:38;98981.00;;;-6.38;90.80
49515;BME280;35415;47.870;16.058;2022-12-18T06:51:05;98992.66;;;-6.42;90.79
49515;BME280;35415;47.870;16.058;2022-12-18T06:53:36;98993.00;;;-6.47;90.76
49515;BME280;35415;47.870;16.058;2022-12-18T06:56:04;98986.31;;;-6.62;90.68
49515;BME280;35415;47.870;16.058;2022-12-18T06:58:35;99018.13;;;-6.33;91.29
49515;BME280;35415;47.870;16.058;2022-12-18T07:01:04;99000.03;;;-6.47;90.62
49515;BME280;35415;47.870;16.058;2022-12-18T07:03:32;99038.50;;;-6.37;90.54
49515;BME280;35415;47.870;16.058;2022-12-18T07:06:01;98946.91;;;-6.94;91.07
49515;BME280;35415;47.870;16.058;2022-12-18T07:08:31;98980.00;;;-6.82;90.80
49515;BME280;35415;47.870;16.058;2022-12-18T07:10:58;98937.63;;;-6.98;91.16
49515;BME280;35415;47.870;16.058;2022-12-18T07:13:26;99039.66;;;-6.41;90.89
49515;BME280;35415;47.870;16.058;2022-12-18T07:15:53;99052.88;;;-6.42;nan
49515;BME280;35415;47.870;16.058;2022-12-18T07:18:20;99057.25;;;-6.43;90.70
49515;BME280;35415;47.870;16.058;2022-12-18T07:20:48;99058.44;;;-6.47;90.98
49515;BME280;35415;47.870;16.058;2022-12-18T07:23:18;99018.44;;;-6.71;91.06
49515;BME280;35415;47.870;16.058;2022-12-18T07:25:45;99062.03;;;-6.48;91.00
49515;BME280;35415;47.870;16.058;2022-12-18T07:28:12;99072.00;;;-6.53;90.89
49515;BME280;35415;47.870;16.058;2022-12-18T07:30:40;98987.16;;;-7.08;90.91
49515;BME280;35415;47.870;16.058;2022-12-18T07:33:07;99068.69;;;-6.55;90.92
49515;BME280;35415;47.870;16.058;2022-12-18T07:35:37;99001.13;;;-6.96;91.04
49515;BME280;35415;47.870;16.058;2022-12-18T07:38:04;98951.47;;;-7.31;91.05
49515;BME280;35415;47.870;16.058;2022-12-18T07:40:33;99079.16;;;-6.55;91.59
49515;BME280;35415;47.870;16.058;2022-12-18T07:43:00;99078.28;;;-6.55;91.54
49515;BME280;35415;47.870;16.058;2022-12-18T07:45:27;99058.13;;;-6.77;91.33
49515;BME280;35415;47.870;16.058;2022-12-18T07:47:58;99091.38;;;-6.55;91.34
49515;BME280;35415;47.870;16.058;2022-12-18T07:50:26;99097.25;;;-6.52;91.42
49515;BME280;35415;47.870;16.058;2022-12-18T07:52:53;99102.09;;;-6.58;91.40
49515;BME280;35415;47.870;16.058;2022-12-18T07:55:20;99025.97;;;-7.02;91.79
49515;BME280;35415;47.870;16.058;2022-12-18T07:57:49;99092.31;;;-6.56;91.27
49515;BME280;35415;47.870;16.058;2022-12-18T08:00:17;99098.50;;;-6.57;90.83
49515;BME280;35415;47.870;16.058;2022-12-18T08:02:44;99093.50;;;-6.60;90.95
49515;BME280;35415;47.870;16.058;2022-12-18T08:05:12;99100.88;;;-6.65;90.88
49515;BME280;35415;47.870;16.058;2022-12-18T08:07:40;99057.38;;;-6.90;90.90
49515;BME280;35415;47.870;16.058;2022-12-18T08:10:08;99031.25;;;-7.14;91.42
49515;BME280;35415;47.870;16.058;2022-12-18T08:12:35;99034.06;;;-6.93;91.45
49515;BME280;35415;47.870;16.058;2022-12-18T08:15:05;99068.00;;;-6.81;91.79
49515;BME280;35415;47.870;16.058;2022-12-18T08:17:33;98999.94;;;-7.27;91.74
49515;BME280;35415;47.870;16.058;2022-12-18T08:20:00;99106.72;;;-6.62;91.82
49515;BME280;35415;47.870;16.058;2022-12-18T08:22:30;99103.50;;;-6.65;91.37
49515;BME280;35415;47.870;16.058;2022-12-18T08:24:57;99116.47;;;-6.64;91.53
49515;BME280;35415;47.870;16.058;2022-12-18T08:27:25;99103.16;;;-6.61;92.42
49515;BME280;35415;47.870;16.058;2022-12-18T08:29:52;99075.38;;;-6.75;91.96
49515;BME280;35415;47.870;16.058;2022-12-18T08:32:21;99071.09;;;-6.76;92.42
49515;BME280;35415;47.870;16.058;2022-12-18T08:34:48;99103.63;;;-6.56;92.16
49515;BME280;35415;47.870;16.058;2022-12-18T08:37:15;99004.16;;;-7.13;91.79
49515;BME280;35415;47.870;16.058;2022-12-18T08:39:43;99041.31;;;-6.97;92.32
49515;BME280;35415;47.870;16.058;2022-12-18T08:42:10;99098.69;;;-6.48;92.51
49515;BME280;35415;47.870;16.058;2022-12-18T08:44:55;99098.31;;;-6.43;92.39
49515;BME280;35415;47.870;16.058;2022-12-18T08:47:23;99014.91;;;-6.94;92.56
49515;BME280;35415;47.870;16.058;2022-12-18T08:49:51;99092.63;;;-6.37;91.90
49515;BME280;35415;47.870;16.058;2022-12-18T08:52:18;99096.81;;;-6.34;92.17
49515;BME280;35415;47.870;16.058;2022-12-18T08:54:45;99123.72;;;-6.32;92.64
49515;BME280;35415;47.870;16.058;2022-12-18T08:57:12;99106.81;;;-6.28;92.60
49515;BME280;35415;47.870;16.058;2022-12-18T08:59:40;99098.84;;;-6.27;93.29
49515;BME280;35415;47.870;16.058;2022-12-18T09:02:08;99100.25;;;-6.23;93.19
49515;BME280;35415;47.870;16.058;2022-12-18T09:04:51;99070.13;;;-6.51;93.07
49515;BME280;35415;47.870;16.058;2022-12-18T09:07:22;99063.22;;;-6.41;92.99
49515;BME280;35415;47.870;16.058;2022-12-18T09:09:49;99024.16;;;-6.66;92.44
49515;BME280;35415;47.870;16.058;2022-12-18T09:12:17;99079.06;;;-6.31;93.14
49515;BME280;35415;47.870;16.058;2022-12-18T09:14:44;99111.97;;;-6.04;92.75
49515;BME280;35415;47.870;16.058;2022-12-18T09:17:11;99065.38;;;-6.34;92.47
49515;BME280;35415;47.870;16.058;2022-12-18T09:19:39;99112.69;;;-6.02;92.75
49515;BME280;35415;47.870;16.058;2022-12-18T09:22:08;99109.72;;;-5.98;93.20
49515;BME280;35415;47.870;16.058;2022-12-18T09:24:35;99030.00;;;-6.40;93.00
49515;BME280;35415;47.870;16.058;2022-12-18T09:27:03;99061.34;;;-6.16;92.67
49515;BME280;35415;47.870;16.058;2022-12-18T09:29:30;99029.66;;;-6.47;92.55
49515;BME280;35415;47.870;16.058;2022-12-18T09:31:57;99117.28;;;-5.72;92.85
49515;BME280;35415;47.870;16.058;2022-12-18T09:34:25;99079.34;;;-6.00;93.18
49515;BME280;35415;47.870;16.058;2022-12-18T09:36:52;99084.28;;;-5.75;93.42
49515;BME280;35415;47.870;16.058;2022-12-18T09:39:21;99028.84;;;-6.02;93.46
49515;BME280;35415;47.870;16.058;2022-12-18T09:41:51;99095.13;;;-5.57;93.05
49515;BME280;35415;47.870;16.058;2022-12-18T09:44:24;99079.53;;;-5.59;93.94
49515;BME280;35415;47.870;16.058;2022-12-18T09:47:00;99085.09;;;-5.41;93.51
49515;BME280;35415;47.870;16.058;2022-12-18T09:49:34;99070.44;;;-5.55;93.77
49515;BME280;35415;47.870;16.058;2022-12-18T09:52:15;98985.47;;;-5.84;93.94
49515;BME280;35415;47.870;16.058;2022-12-18T09:54:55;99004.31;;;-5.58;94.12
49515;BME280;35415;47.870;16.058;2022-12-18T09:57:32;99074.38;;;-5.06;93.98
49515;BME280;35415;47.870;16.058;2022-12-18T10:00:11;99072.13;;;-4.99;93.98
49515;BME280;35415;47.870;16.058;2022-12-18T10:02:42;99005.00;;;-5.45;94.60
49515;BME280;35415;47.870;16.058;2022-12-18T10:05:12;99062.28;;;-4.86;94.88
49515;BME280;35415;47.870;16.058;2022-12-18T10:07:53;99011.94;;;-5.12;95.22
49515;BME280;35415;47.870;16.058;2022-12-18T10:10:38;99031.16;;;-4.91;95.22
49515;BME280;35415;47.870;16.058;2022-12-18T10:13:20;99009.31;;;-4.91;96.01
49515;BME280;35415;47.870;16.058;2022-12-18T10:15:56;99067.69;;;-4.46;96.14
49515;BME280;35415;47.870;16.058;2022-12-18T10:18:36;98987.19;;;-4.77;96.67
49515;BME280;35415;47.870;16.058;2022-12-18T10:21:10;98970.59;;;-4.78;96.38
49515;BME280;35415;47.870;16.058;2022-12-18T10:23:39;99067.47;;;-4.12;95.52
49515;BME280;35415;47.870;16.058;2022-12-18T10:26:11;99006.31;;;-4.45;96.22
49515;BME280;35415;47.870;16.058;2022-12-18T10:28:40;98980.31;;;-4.48;96.39
49515;BME280;35415;47.870;16.058;2022-12-18T10:31:15;98998.00;;;-4.19;95.85
49515;BME280;35415;47.870;16.058;2022-12-18T10:33:43;99073.16;;;-3.77;96.44
49515;BME280;35415;47.870;16.058;2022-12-18T10:36:13;98972.25;;;-4.26;96.23
49515;BME280;35415;47.870;16.058;2022-12-18T10:38:40;98974.66;;;-4.13;96.37
49515;BME280;35415;47.870;16.058;2022-12-18T10:41:25;99049.25;;;-3.54;96.30
49515;BME280;35415;47.870;16.058;2022-12-18T10:44:10;99052.50;;;-3.41;96.38
49515;BME280;35415;47.870;16.058;2022-12-18T10:46:40;98989.03;;;-3.67;96.11
49515;BME280;35415;47.870;16.058;2022-12-18T10:49:19;99049.34;;;-3.25;96.22
49515;BME280;35415;47.870;16.058;2022-12-18T10:51:48;99047.13;;;-3.20;95.67
49515;BME280;35415;47.870;16.058;2022-12-18T10:54:18;99027.59;;;-3.27;95.52
49515;BME280;35415;47.870;16.058;2022-12-18T10:56:49;99049.22;;;-3.05;95.47
49515;BME280;35415;47.870;16.058;2022-12-18T10:59:18;99030.38;;;-3.10;95.27
49515;BME280;35415;47.870;16.058;2022-12-18T11:01:49;99046.31;;;-2.92;95.27
49515;BME280;35415;47.870;16.058;2022-12-18T11:04:20;98959.75;;;-3.34;94.89
49515;BME280;35415;47.870;16.058;2022-12-18T11:06:57;99038.97;;;-2.79;95.04
49515;BME280;35415;47.870;16.058;2022-12-18T11:09:26;98994.09;;;-2.96;94.65
49515;BME280;35415;47.870;16.058;2022-12-18T11:11:57;98979.41;;;-2.99;94.91
49515;BME280;35415;47.870;16.058;2022-12-18T11:14:29;98991.16;;;-2.84;94.36
49515;BME280;35415;47.870;16.058;2022-12-18T11:16:58;99039.22;;;-2.53;94.43
49515;BME280;35415;47.870;16.058;2022-12-18T11:19:33;98985.91;;;-2.84;94.09
49515;BME280;35415;47.870;16.058;2022-12-18T11:22:03;99006.81;;;-2.63;94.17
49515;BME280;35415;47.870;16.058;2022-12-18T11:24:52;99025.06;;;-2.42;93.94
49515;BME280;35415;47.870;16.058;2022-12-18T11:27:22;99021.31;;;-2.39;94.03
49515;BME280;35415;47.870;16.058;2022-12-18T11:29:50;99027.53;;;-2.31;93.70
49515;BME280;35415;47.870;16.058;2022-12-18T11:32:38;99034.03;;;-2.25;93.53
49515;BME280;35415;47.870;16.058;2022-12-18T11:35:16;99035.41;;;-2.21;93.54
49515;BME280;35415;47.870;16.058;2022-12-18T11:37:53;98937.34;;;-2.72;93.32
49515;BME280;35415;47.870;16.058;2022-12-18T11:40:27;98985.09;;;-2.37;93.13
49515;BME280;35415;47.870;16.058;2022-12-18T11:43:04;99010.00;;;-2.13;93.01
49515;BME280;35415;47.870;16.058;2022-12-18T11:45:34;99017.31;;;-2.06;92.72
49515;BME280;35415;47.870;16.058;2022-12-18T11:48:12;98954.03;;;-2.34;92.67
49515;BME280;35415;47.870;16.058;2022-12-18T11:50:47;98999.97;;;-1.99;92.55
49515;BME280;35415;47.870;16.058;2022-12-18T11:53:15;99008.56;;;-1.97;92.31
49515;BME280;35415;47.870;16.058;2022-12-18T11:56:02;98949.84;;;-2.36;91.86
49515;BME280;35415;47.870;16.058;2022-12-18T11:58:42;98936.41;;;-2.33;91.69
49515;BME280;35415;47.870;16.058;2022-12-18T12:01:18;98968.50;;;-2.10;91.67
49515;BME280;35415;47.870;16.058;2022-12-18T12:04:09;98914.78;;;-2.37;91.39
49515;BME280;35415;47.870;16.058;2022-12-18T12:06:49;98928.16;;;-2.21;91.27
49515;BME280;35415;47.870;16.058;2022-12-18T12:09:27;98935.88;;;-2.09;91.08
49515;BME280;35415;47.870;16.058;2022-12-18T12:12:07;98985.41;;;-1.76;91.06
49515;BME280;35415;47.870;16.058;2022-12-18T12:14:48;98989.56;;;-1.73;90.86
49515;BME280;35415;47.870;16.058;2022-12-18T12:17:26;98990.22;;;-1.71;91.03
49515;BME280;35415;47.870;16.058;2022-12-18T12:20:00;99000.63;;;-1.70;90.61
49515;BME280;35415;47.870;16.058;2022-12-18T12:22:36;99003.97;;;-1.68;90.65
49515;BME280;35415;47.870;16.058;2022-12-18T12:25:18;98980.50;;;-1.71;90.57
49515;BME280;35415;47.870;16.058;2022-12-18T12:27:53;98932.38;;;-2.00;90.43
49515;BME280;35415;47.870;16.058;2022-12-18T12:30:33;98933.44;;;-1.93;90.31
49515;BME280;35415;47.870;16.058;2022-12-18T12:33:18;98942.78;;;-1.99;90.17
49515;BME280;35415;47.870;16.058;2022-12-18T12:35:57;98910.50;;;-2.10;90.09
49515;BME280;35415;47.870;16.058;2022-12-18T12:38:30;98975.63;;;-1.66;89.77
49515;BME280;35415;47.870;16.058;2022-12-18T12:41:03;98899.00;;;-2.19;89.64
49515;BME280;35415;47.870;16.058;2022-12-18T12:43:35;98915.09;;;-2.13;89.67
49515;BME280;35415;47.870;16.058;2022-12-18T12:46:08;98923.50;;;-1.99;89.78
49515;BME280;35415;47.870;16.058;2022-12-18T12:48:47;98926.03;;;-2.07;89.29
49515;BME280;35415;47.870;16.058;2022-12-18T12:51:21;98921.69;;;-1.99;89.54
49515;BME280;35415;47.870;16.058;2022-12-18T12:53:55;98892.78;;;-2.18;89.45
49515;BME280;35415;47.870;16.058;2022-12-18T12:56:40;98989.09;;;-1.69;89.64
49515;BME280;35415;47.870;16.058;2022-12-18T12:59:15;98962.34;;;-1.74;89.69
49515;BME280;35415;47.870;16.058;2022-12-18T13:01:53;98954.56;;;-1.75;89.71
49515;BME280;35415;47.870;16.058;2022-12-18T13:04:35;98926.69;;;-2.05;89.46
49515;BME280;35415;47.870;16.058;2022-12-18T13:07:10;98946.44;;;-1.82;89.49
49515;BME280;35415;47.870;16.058;2022-12-18T13:10:14;98994.66;;;-1.44;89.68